Star, Texas
Current Conditions -  °F | °C
As of 7:55 PM on Saturday 25 Oct 2014 (Local Time) from KMNZ Reporting Station
Clear Clear  
Wind Chill: 23°   Ceiling: Unl
Heat Index: 23°   Visibility: 10mi
Dew Point: 14°   Wind: 6mph
Humidity: 54%   Direction: 150°SSE
Pressure: 30.1"   Gusts: NA
Location:  31.47°N, 98.32°W
Report Text: KMNZ 260055Z AUTO 15005KT 10SM CLR 23/14 A3010 RMK AO2 T02320135
Loading
Personal Weather Stations






























Interactive Weather Map
Tropical Storm Tracking
New forecast layout! Learn more

10-Day Weather Forecast

Advertisements
Track Severe Weather on mobile